createdAt,value
2018-12-01T00:00:08.183Z,98798.78
2018-12-01T00:02:39.401Z,98788.77
2018-12-01T00:05:12.693Z,98793.67
2018-12-01T00:07:45.468Z,98793.67
2018-12-01T00:10:20.811Z,98788.63
2018-12-01T00:12:52.574Z,98782.41
2018-12-01T00:15:26.722Z,98779.97
2018-12-01T00:17:59.530Z,98783.75
2018-12-01T00:20:34.192Z,98780.80
2018-12-01T00:23:04.344Z,98774.41
2018-12-01T00:25:34.859Z,98776.74
2018-12-01T00:28:05.486Z,98784.25
2018-12-01T00:30:35.899Z,98788.52
2018-12-01T00:33:06.746Z,98782.28
2018-12-01T00:35:37.230Z,98777.05
2018-12-01T00:38:07.910Z,98777.84
2018-12-01T00:40:38.382Z,98777.18
2018-12-01T00:43:08.652Z,98776.69
2018-12-01T00:45:45.380Z,98777.67
2018-12-01T00:48:16.671Z,98786.49
2018-12-01T00:50:47.611Z,98787.16
2018-12-01T00:53:17.738Z,98784.05
2018-12-01T00:55:48.569Z,98781.26
2018-12-01T00:58:19.699Z,98781.11
2018-12-01T01:00:49.793Z,98777.97
2018-12-01T01:03:20.877Z,98780.92
2018-12-01T01:05:53.833Z,98778.36
2018-12-01T01:08:24.628Z,98775.72
2018-12-01T01:10:58.093Z,98776.02
2018-12-01T01:13:30.152Z,98775.69
2018-12-01T01:16:05.288Z,98770.12
2018-12-01T01:18:39.250Z,98776.66
2018-12-01T01:21:13.038Z,98775.35
2018-12-01T01:23:45.296Z,98775.20
2018-12-01T01:26:18.912Z,98771.58
2018-12-01T01:28:50.532Z,98781.56
2018-12-01T01:31:22.415Z,98777.14
2018-12-01T01:33:52.675Z,98780.22
2018-12-01T01:36:27.772Z,98777.27
2018-12-01T01:38:57.877Z,98777.42
2018-12-01T01:41:30.857Z,98780.03
2018-12-01T01:44:07.536Z,98779.70
2018-12-01T01:46:37.703Z,98771.69
2018-12-01T01:49:08.945Z,98773.34
2018-12-01T01:51:39.414Z,98772.33
2018-12-01T01:54:09.975Z,98776.44
2018-12-01T01:56:40.375Z,98773.34
2018-12-01T01:59:10.821Z,98769.71
2018-12-01T02:01:44.729Z,98766.61
2018-12-01T02:04:14.879Z,98767.77
2018-12-01T02:06:48.772Z,98761.52
2018-12-01T02:09:19.904Z,98764.29
2018-12-01T02:11:50.040Z,98767.05
2018-12-01T02:14:21.072Z,98761.03
2018-12-01T02:16:51.921Z,98758.86
2018-12-01T02:19:24.999Z,98756.39
2018-12-01T02:21:56.026Z,98758.70
2018-12-01T02:24:29.863Z,98762.15
2018-12-01T02:26:59.986Z,98755.91
2018-12-01T02:29:30.062Z,98760.50
2018-12-01T02:32:01.515Z,98760.84
2018-12-01T02:34:31.254Z,98762.94
2018-12-01T02:37:02.091Z,98758.52
2018-12-01T02:39:33.015Z,98758.03
2018-12-01T02:42:03.365Z,98757.55
2018-12-01T02:44:59.812Z,98756.91
2018-12-01T02:47:30.985Z,98757.21
2018-12-01T02:50:02.383Z,98758.86
2018-12-01T02:52:32.472Z,98758.86
2018-12-01T02:55:03.204Z,98756.38
2018-12-01T02:57:33.303Z,98754.89
2018-12-01T03:00:05.816Z,98755.56
2018-12-01T03:02:37.781Z,98760.80
2018-12-01T03:05:09.720Z,98758.52
2018-12-01T03:07:42.236Z,98767.69
2018-12-01T03:10:13.712Z,98768.17
2018-12-01T03:12:46.284Z,98761.14
2018-12-01T03:15:18.645Z,98765.89
2018-12-01T03:17:51.503Z,98761.63
2018-12-01T03:20:21.662Z,98764.73
2018-12-01T03:22:52.229Z,98763.91
2018-12-01T03:25:25.270Z,98771.57
2018-12-01T03:27:56.334Z,98765.02
2018-12-01T03:30:28.362Z,98774.53
2018-12-01T03:32:59.286Z,98769.92
2018-12-01T03:35:30.270Z,98769.77
2018-12-01T03:38:02.339Z,98769.77
2018-12-01T03:40:51.853Z,98768.66
2018-12-01T03:43:21.974Z,98769.62
2018-12-01T03:45:55.080Z,98769.78
2018-12-01T03:48:25.438Z,98772.05
2018-12-01T03:50:58.456Z,98780.55
2018-12-01T03:53:29.457Z,98782.05
2018-12-01T03:55:59.649Z,98782.72
2018-12-01T03:58:36.324Z,98778.94
2018-12-01T04:01:07.496Z,98788.92
2018-12-01T04:03:46.179Z,98790.53
2018-12-01T04:06:16.505Z,98790.05
2018-12-01T04:08:47.571Z,98796.11
2018-12-01T04:11:18.388Z,98799.03
2018-12-01T04:13:51.484Z,98794.45
2018-12-01T04:16:21.601Z,98789.52
2018-12-01T04:18:52.570Z,98791.50
2018-12-01T04:21:24.491Z,98799.66
2018-12-01T04:24:03.420Z,98794.75
2018-12-01T04:26:34.534Z,98801.45
2018-12-01T04:29:08.009Z,98798.64
2018-12-01T04:31:38.635Z,98806.50
2018-12-01T04:34:11.634Z,98793.73
2018-12-01T04:36:42.475Z,98797.67
2018-12-01T04:39:12.657Z,98800.62
2018-12-01T04:41:43.606Z,98798.64
2018-12-01T04:44:14.547Z,98802.23
2018-12-01T04:46:45.719Z,98802.04
2018-12-01T04:49:16.730Z,98807.42
2018-12-01T04:51:49.644Z,98801.98
2018-12-01T04:54:20.669Z,98800.86
2018-12-01T04:56:57.741Z,98802.51
2018-12-01T04:59:30.778Z,98806.40
2018-12-01T05:02:03.816Z,98809.83
2018-12-01T05:04:34.741Z,98810.77
2018-12-01T05:07:07.816Z,98813.38
2018-12-01T05:09:38.662Z,98815.46
2018-12-01T05:12:08.915Z,98809.58
2018-12-01T05:14:42.868Z,98809.53
2018-12-01T05:17:13.467Z,98810.44
2018-12-01T05:19:43.965Z,98807.81
2018-12-01T05:22:14.776Z,98818.98
2018-12-01T05:24:45.251Z,98820.58
2018-12-01T05:27:15.847Z,98822.71
2018-12-01T05:29:46.579Z,98816.92
2018-12-01T05:32:17.117Z,98818.36
2018-12-01T05:34:47.737Z,98819.75
2018-12-01T05:37:18.804Z,98822.38
2018-12-01T05:39:50.321Z,98822.94
2018-12-01T05:42:21.481Z,98821.59
2018-12-01T05:44:53.242Z,98820.09
2018-12-01T05:47:25.008Z,98818.27
2018-12-01T05:50:04.242Z,98818.27
2018-12-01T05:52:38.723Z,98817.59
2018-12-01T05:55:12.714Z,98828.80
2018-12-01T05:57:50.153Z,98820.88
2018-12-01T06:00:21.613Z,98821.61
2018-12-01T06:02:52.862Z,98834.94
2018-12-01T06:05:25.028Z,98831.13
2018-12-01T06:07:59.686Z,98834.44
2018-12-01T06:10:52.868Z,98837.15
2018-12-01T06:13:56.226Z,98832.72
2018-12-01T06:17:17.726Z,98833.27
2018-12-01T06:47:38.100Z,98846.18
2018-12-01T06:50:49.884Z,98856.33
2018-12-01T06:53:39.225Z,98733.73
2018-12-01T06:56:18.659Z,98862.90
2018-12-01T06:58:59.635Z,98873.41
2018-12-01T07:01:38.709Z,98877.34
2018-12-01T07:04:11.026Z,98872.09
2018-12-01T07:06:50.514Z,98873.42
2018-12-01T07:09:22.698Z,98877.49
2018-12-01T07:11:55.524Z,98887.81
2018-12-01T07:14:28.090Z,98882.69
2018-12-01T07:16:59.597Z,98876.70
2018-12-01T07:19:29.763Z,98881.60
2018-12-01T07:22:00.388Z,98889.00
2018-12-01T07:24:31.260Z,98892.61
2018-12-01T07:27:01.423Z,98891.39
2018-12-01T07:29:32.055Z,98893.33
2018-12-01T07:32:02.484Z,98893.66
2018-12-01T07:34:33.557Z,98888.08
2018-12-01T07:37:03.685Z,98891.66
2018-12-01T07:39:34.172Z,98882.45
2018-12-01T07:42:05.264Z,98885.22
2018-12-01T07:44:35.449Z,98887.47
2018-12-01T07:47:06.069Z,98885.50
2018-12-01T07:49:37.197Z,98894.66
2018-12-01T07:52:07.364Z,98894.88
2018-12-01T07:54:37.499Z,98895.63
2018-12-01T07:57:08.532Z,98897.66
2018-12-01T07:59:39.240Z,98897.29
2018-12-01T08:02:09.436Z,98900.55
2018-12-01T08:04:39.588Z,98904.08
2018-12-01T08:07:10.545Z,98909.47
2018-12-01T08:09:41.453Z,98909.14
2018-12-01T08:12:11.647Z,98911.60
2018-12-01T08:14:42.471Z,98908.32
2018-12-01T08:17:19.505Z,98908.03
2018-12-01T08:19:56.648Z,98915.84
2018-12-01T08:22:27.641Z,98912.15
2018-12-01T08:25:05.248Z,98911.41
2018-12-01T08:27:37.759Z,98913.34
2018-12-01T08:30:25.308Z,98907.74
2018-12-01T08:32:57.583Z,98915.93
2018-12-01T08:35:29.217Z,98917.94
2018-12-01T08:38:01.726Z,98925.42
2018-12-01T08:40:34.401Z,98920.40
2018-12-01T08:43:06.030Z,98920.97
2018-12-01T08:45:36.179Z,98915.56
2018-12-01T08:48:07.712Z,98927.09
2018-12-01T08:50:38.241Z,98936.88
2018-12-01T08:53:10.919Z,98932.72
2018-12-01T08:55:41.937Z,98923.83
2018-12-01T08:58:13.457Z,98925.02
2018-12-01T09:00:45.897Z,98934.95
2018-12-01T09:03:23.369Z,98945.26
2018-12-01T09:05:55.856Z,98940.31
2018-12-01T09:08:26.000Z,98942.63
2018-12-01T09:11:02.765Z,98945.84
2018-12-01T09:13:36.641Z,98951.14
2018-12-01T09:16:08.855Z,98951.21
2018-12-01T09:18:44.147Z,98957.06
2018-12-01T09:21:14.908Z,98952.97
2018-12-01T09:23:45.540Z,98955.05
2018-12-01T09:26:15.915Z,98958.05
2018-12-01T09:28:46.839Z,98955.37
2018-12-01T09:31:17.876Z,98951.23
2018-12-01T09:33:47.986Z,98950.78
2018-12-01T09:36:22.003Z,98954.66
2018-12-01T09:38:54.947Z,98949.57
2018-12-01T09:41:28.017Z,98949.84
2018-12-01T09:43:59.893Z,98953.00
2018-12-01T09:46:30.997Z,98955.00
2018-12-01T09:49:03.996Z,98952.36
2018-12-01T09:51:40.889Z,98957.72
2018-12-01T09:54:13.946Z,98949.95
2018-12-01T09:56:44.619Z,98953.91
2018-12-01T09:59:14.920Z,98944.86
2018-12-01T10:01:46.191Z,98946.83
2018-12-01T10:04:16.293Z,98943.25
2018-12-01T10:06:48.959Z,98938.69
2018-12-01T10:09:19.987Z,98937.52
2018-12-01T10:11:56.672Z,98931.86
2018-12-01T10:14:27.316Z,98925.48
2018-12-01T10:16:57.781Z,98928.64
2018-12-01T10:19:32.078Z,98931.16
2018-12-01T10:22:05.103Z,98929.58
2018-12-01T10:24:35.127Z,98931.72
2018-12-01T10:27:11.971Z,98930.28
2018-12-01T10:29:42.250Z,98927.09
2018-12-01T10:32:16.284Z,98932.71
2018-12-01T10:34:47.136Z,98918.16
2018-12-01T10:37:17.653Z,98914.55
2018-12-01T10:39:48.054Z,98911.84
2018-12-01T10:42:19.025Z,98909.53
2018-12-01T10:44:49.893Z,98910.52
2018-12-01T10:47:20.231Z,98910.52
2018-12-01T10:49:57.167Z,98907.45
2018-12-01T10:52:28.289Z,98914.14
2018-12-01T10:55:02.101Z,98906.84
2018-12-01T10:57:35.238Z,98910.74
2018-12-01T11:00:17.200Z,98908.20
2018-12-01T11:02:55.686Z,98914.58
2018-12-01T11:05:25.619Z,98910.19
2018-12-01T11:07:56.514Z,98914.08
2018-12-01T11:10:27.313Z,98909.90
2018-12-01T11:12:58.025Z,98906.17
2018-12-01T11:15:28.352Z,98910.13
2018-12-01T11:17:58.989Z,98915.58
2018-12-01T11:20:29.540Z,98911.06
2018-12-01T11:23:00.189Z,98912.02
2018-12-01T11:25:30.363Z,98911.62
2018-12-01T11:28:01.435Z,98907.66
2018-12-01T11:30:32.101Z,98910.32
2018-12-01T11:33:02.508Z,98903.84
2018-12-01T11:35:33.212Z,98905.93
2018-12-01T11:38:03.915Z,98904.81
2018-12-01T11:40:34.465Z,98898.23
2018-12-01T11:43:04.649Z,98901.74
2018-12-01T11:45:35.617Z,98907.41
2018-12-01T11:48:07.386Z,98909.05
2018-12-01T11:50:37.891Z,98912.62
2018-12-01T11:53:08.257Z,98914.77
2018-12-01T11:55:38.740Z,98917.88
2018-12-01T11:58:10.081Z,98914.59
2018-12-01T12:00:40.171Z,98912.71
2018-12-01T12:03:10.820Z,98912.17
2018-12-01T12:05:41.625Z,98907.08
2018-12-01T12:08:20.587Z,98908.27
2018-12-01T12:10:51.887Z,98905.55
2018-12-01T12:13:23.083Z,98909.39
2018-12-01T12:15:56.037Z,98909.44
2018-12-01T12:18:28.950Z,98909.20
2018-12-01T12:20:59.768Z,98914.92
2018-12-01T12:23:30.769Z,98907.49
2018-12-01T12:26:01.788Z,98904.53
2018-12-01T12:28:31.998Z,98902.81
2018-12-01T12:31:02.445Z,98905.95
2018-12-01T12:33:32.989Z,98891.13
2018-12-01T12:36:03.530Z,98891.36
2018-12-01T12:38:34.157Z,98885.09
2018-12-01T12:41:04.861Z,98888.77
2018-12-01T12:43:35.328Z,98882.50
2018-12-01T12:46:06.003Z,98891.20
2018-12-01T12:48:36.663Z,98891.17
2018-12-01T12:51:06.926Z,98889.42
2018-12-01T12:53:43.602Z,98882.78
2018-12-01T12:56:14.798Z,98884.62
2018-12-01T12:58:44.907Z,98874.38
2018-12-01T13:01:15.895Z,98873.06
2018-12-01T13:03:46.847Z,98872.77
2018-12-01T13:06:18.268Z,98874.92
2018-12-01T13:08:48.807Z,98878.50
2018-12-01T13:11:21.949Z,98876.97
2018-12-01T13:13:53.008Z,98879.72
2018-12-01T13:16:29.477Z,98876.84
2018-12-01T13:19:00.036Z,98878.55
2018-12-01T13:21:31.143Z,98878.22
2018-12-01T13:24:01.349Z,98884.32
2018-12-01T13:26:32.226Z,98893.83
2018-12-01T13:29:02.732Z,98890.41
2018-12-01T13:31:33.194Z,98878.66
2018-12-01T13:34:03.794Z,98885.98
2018-12-01T13:36:34.030Z,98885.59
2018-12-01T13:39:06.815Z,98891.59
2018-12-01T13:41:39.115Z,98891.42
2018-12-01T13:44:15.089Z,98898.72
2018-12-01T13:46:46.034Z,98898.18
2018-12-01T13:49:19.031Z,98902.02
2018-12-01T13:51:49.931Z,98906.08
2018-12-01T13:54:20.000Z,98912.23
2018-12-01T13:56:51.109Z,98914.55
2018-12-01T13:59:22.209Z,98913.93
2018-12-01T14:01:58.129Z,98918.59
2018-12-01T14:04:29.089Z,98919.27
2018-12-01T14:06:59.959Z,98918.27
2018-12-01T14:09:30.092Z,98928.11
2018-12-01T14:12:03.936Z,98924.30
2018-12-01T14:14:35.126Z,98921.14
2018-12-01T14:17:05.405Z,98922.56
2018-12-01T14:19:38.972Z,98933.44
2018-12-01T14:22:10.225Z,98932.12
2018-12-01T14:24:41.031Z,98936.56
2018-12-01T14:27:11.787Z,98938.91
2018-12-01T14:29:42.296Z,98949.46
2018-12-01T14:32:13.188Z,98952.39
2018-12-01T14:34:43.304Z,98954.41
2018-12-01T14:37:20.075Z,98963.41
2018-12-01T14:39:50.223Z,98962.47
2018-12-01T14:42:25.386Z,98967.42
2018-12-01T14:44:58.505Z,98961.85
2018-12-01T14:47:37.499Z,98972.45
2018-12-01T14:50:09.810Z,98973.45
2018-12-01T14:52:41.920Z,98974.48
2018-12-01T14:55:15.908Z,98978.81
2018-12-01T14:57:48.519Z,98977.49
2018-12-01T15:00:25.561Z,98982.44
2018-12-01T15:02:56.516Z,98980.42
2018-12-01T15:05:27.102Z,98985.08
2018-12-01T15:08:00.213Z,98980.83
2018-12-01T15:10:30.882Z,98984.45
2018-12-01T15:13:03.282Z,98985.95
2018-12-01T15:15:34.533Z,98981.88
2018-12-01T15:18:04.664Z,98976.07
2018-12-01T15:20:35.492Z,98980.41
2018-12-01T15:23:13.365Z,98948.78
2018-12-01T15:25:43.473Z,98985.40
2018-12-01T15:28:13.588Z,98993.01
2018-12-01T15:30:44.451Z,98998.20
2018-12-01T15:33:15.742Z,99005.11
2018-12-01T15:35:46.818Z,99002.47
2018-12-01T15:38:18.541Z,99007.12
2018-12-01T15:40:53.026Z,99004.17
2018-12-01T15:43:23.125Z,99006.48
2018-12-01T15:45:53.588Z,99013.14
2018-12-01T15:48:25.715Z,99011.83
2018-12-01T15:50:57.582Z,99008.70
2018-12-01T15:53:28.599Z,99009.69
2018-12-01T15:55:58.803Z,99013.84
2018-12-01T15:58:29.753Z,99021.62
2018-12-01T16:00:59.863Z,99011.88
2018-12-01T16:03:30.623Z,99007.75
2018-12-01T16:06:00.914Z,99016.77
2018-12-01T16:08:31.716Z,99007.25
2018-12-01T16:11:02.034Z,99005.29
2018-12-01T16:13:33.108Z,99005.98
2018-12-01T16:16:10.157Z,99003.97
2018-12-01T16:18:47.719Z,99003.18
2018-12-01T16:21:18.949Z,98996.77
2018-12-01T16:23:51.961Z,99000.39
2018-12-01T16:26:22.371Z,98993.52
2018-12-01T16:28:52.807Z,98991.25
2018-12-01T16:31:22.920Z,98991.42
2018-12-01T16:33:54.051Z,98984.72
2018-12-01T16:36:25.658Z,98980.47
2018-12-01T16:38:57.888Z,98976.89
2018-12-01T16:41:34.444Z,98980.52
2018-12-01T16:44:06.332Z,98982.53
2018-12-01T16:46:38.779Z,98976.07
2018-12-01T16:49:09.868Z,98977.59
2018-12-01T16:51:45.909Z,98974.95
2018-12-01T16:54:16.930Z,98974.63
2018-12-01T16:56:47.937Z,98975.25
2018-12-01T16:59:19.919Z,98968.67
2018-12-01T17:01:50.080Z,98962.45
2018-12-01T17:04:22.529Z,98955.95
2018-12-01T17:06:52.846Z,98957.31
2018-12-01T17:09:23.061Z,98957.44
2018-12-01T17:11:57.845Z,98945.59
2018-12-01T17:14:28.983Z,98942.25
2018-12-01T17:17:02.084Z,98941.67
2018-12-01T17:19:33.108Z,98950.96
2018-12-01T17:22:06.579Z,98942.16
2018-12-01T17:24:37.103Z,98939.64
2018-12-01T17:27:10.050Z,98936.75
2018-12-01T17:29:40.225Z,98924.95
2018-12-01T17:32:11.117Z,98930.41
2018-12-01T17:34:47.836Z,98922.20
2018-12-01T17:37:18.271Z,98925.28
2018-12-01T17:39:49.062Z,98928.90
2018-12-01T17:42:22.223Z,98923.47
2018-12-01T17:44:52.572Z,98923.22
2018-12-01T17:47:22.777Z,98918.08
2018-12-01T17:49:53.158Z,98927.22
2018-12-01T17:52:23.337Z,98916.20
2018-12-01T17:54:54.200Z,98916.78
2018-12-01T17:57:26.181Z,98917.90
2018-12-01T18:00:05.137Z,98918.22
2018-12-01T18:02:35.313Z,98922.98
2018-12-01T18:05:08.496Z,98916.21
2018-12-01T18:07:39.201Z,98918.84
2018-12-01T18:10:12.899Z,98916.70
2018-12-01T18:12:43.972Z,98917.53
2018-12-01T18:15:15.736Z,98914.90
2018-12-01T18:17:48.396Z,98914.41
2018-12-01T18:20:22.871Z,98916.21
2018-12-01T18:22:57.776Z,98911.60
2018-12-01T18:25:31.211Z,98907.66
2018-12-01T18:28:02.312Z,98904.00
2018-12-01T18:30:35.940Z,98909.22
2018-12-01T18:33:10.276Z,98905.70
2018-12-01T18:35:42.471Z,98898.38
2018-12-01T18:38:14.461Z,98897.63
2018-12-01T18:40:45.527Z,98901.94
2018-12-01T18:43:16.046Z,98906.02
2018-12-01T18:45:48.316Z,98903.84
2018-12-01T18:48:19.543Z,98905.57
2018-12-01T18:50:56.328Z,98913.79
2018-12-01T18:53:29.537Z,98912.11
2018-12-01T18:56:03.094Z,98910.17
2018-12-01T18:58:38.089Z,98906.59
2018-12-01T19:01:10.834Z,98907.95
2018-12-01T19:03:43.487Z,98908.56
2018-12-01T19:06:16.610Z,98906.17
2018-12-01T19:08:47.697Z,98901.60
2018-12-01T19:11:18.587Z,98909.70
2018-12-01T19:13:51.526Z,98911.17
2018-12-01T19:16:25.543Z,98901.97
2018-12-01T19:18:55.920Z,98903.73
2018-12-01T19:21:26.865Z,98903.87
2018-12-01T19:24:00.393Z,98901.86
2018-12-01T19:26:31.432Z,98893.34
2018-12-01T19:29:03.861Z,98898.61
2018-12-01T19:31:34.982Z,98891.04
2018-12-01T19:34:06.336Z,98886.56
2018-12-01T19:36:38.739Z,98894.98
2018-12-01T19:39:13.130Z,98892.16
2018-12-01T19:41:43.655Z,98894.45
2018-12-01T19:44:15.154Z,98884.30
2018-12-01T19:46:47.709Z,98888.45
2018-12-01T19:49:20.717Z,98885.20
2018-12-01T19:51:57.771Z,98882.11
2018-12-01T19:54:29.916Z,98875.05
2018-12-01T19:57:02.603Z,98879.11
2018-12-01T19:59:33.530Z,98872.66
2018-12-01T20:02:04.662Z,98872.30
2018-12-01T20:04:37.978Z,98873.73
2018-12-01T20:07:11.010Z,98871.80
2018-12-01T20:09:46.523Z,98867.08
2018-12-01T20:12:17.994Z,98863.78
2018-12-01T20:14:50.285Z,98859.01
2018-12-01T20:17:21.094Z,98862.95
2018-12-01T20:19:52.312Z,98859.95
2018-12-01T20:22:22.841Z,98869.78
2018-12-01T20:24:53.364Z,98865.87
2018-12-01T20:27:24.812Z,98865.26
2018-12-01T20:30:01.508Z,98858.06
2018-12-01T20:32:34.406Z,98862.83
2018-12-01T20:35:06.114Z,98854.17
2018-12-01T20:37:37.983Z,98859.88
2018-12-01T20:40:12.483Z,98847.23
2018-12-01T20:42:42.835Z,98841.47
2018-12-01T20:45:13.389Z,98842.20
2018-12-01T20:47:43.602Z,98842.16
2018-12-01T20:50:16.310Z,98840.75
2018-12-01T20:52:47.882Z,98839.77
2018-12-01T20:55:27.676Z,98829.91
2018-12-01T20:57:59.773Z,98836.81
2018-12-01T21:00:31.468Z,98828.59
2018-12-01T21:03:05.664Z,98822.84
2018-12-01T21:05:35.938Z,98827.94
2018-12-01T21:08:06.840Z,98822.15
2018-12-01T21:10:39.368Z,98816.47
2018-12-01T21:13:13.881Z,98824.48
2018-12-01T21:15:47.692Z,98822.59
2018-12-01T21:18:17.892Z,98828.34
2018-12-01T21:20:49.020Z,98829.29
2018-12-01T21:23:20.020Z,98817.09
2018-12-01T21:25:53.085Z,98820.22
2018-12-01T21:28:23.205Z,98818.16
2018-12-01T21:30:54.095Z,98811.08
2018-12-01T21:33:29.179Z,98802.78
2018-12-01T21:36:01.160Z,98815.44
2018-12-01T21:38:31.241Z,98809.17
2018-12-01T21:41:02.130Z,98810.78
2018-12-01T21:43:40.950Z,98807.53
2018-12-01T21:46:15.032Z,98809.17
2018-12-01T21:48:50.411Z,98815.38
2018-12-01T21:51:26.200Z,98798.53
2018-12-01T21:53:58.282Z,98806.59
2018-12-01T21:56:29.096Z,98803.34
2018-12-01T21:58:59.264Z,98804.16
2018-12-01T22:01:30.068Z,98804.95
2018-12-01T22:04:00.178Z,98801.95
2018-12-01T22:06:31.406Z,98799.28
2018-12-01T22:09:02.158Z,98805.13
2018-12-01T22:11:32.462Z,98803.80
2018-12-01T22:14:02.995Z,98794.72
2018-12-01T22:16:33.624Z,98796.44
2018-12-01T22:19:04.289Z,98794.44
2018-12-01T22:21:34.999Z,98787.84
2018-12-01T22:24:05.743Z,98780.33
2018-12-01T22:26:39.398Z,98779.94
2018-12-01T22:29:10.369Z,98785.20
2018-12-01T22:31:43.543Z,98786.65
2018-12-01T22:34:14.364Z,98775.84
2018-12-01T22:36:45.359Z,98782.34
2018-12-01T22:39:16.458Z,98779.48
2018-12-01T22:41:49.653Z,98778.02
2018-12-01T22:44:20.516Z,98777.06
2018-12-01T22:46:53.533Z,98785.80
2018-12-01T22:49:23.689Z,98782.25
2018-12-01T22:51:54.464Z,98783.27
2018-12-01T22:54:28.183Z,98780.77
2018-12-01T22:56:58.331Z,98776.34
2018-12-01T22:59:29.175Z,98772.99
2018-12-01T23:01:59.676Z,98779.23
2018-12-01T23:04:30.062Z,98769.55
2018-12-01T23:07:00.750Z,98774.67
2018-12-01T23:09:31.238Z,98767.80
2018-12-01T23:12:01.469Z,98759.77
2018-12-01T23:14:32.315Z,98751.95
2018-12-01T23:17:02.552Z,98754.38
2018-12-01T23:19:32.641Z,98743.45
2018-12-01T23:22:09.458Z,98742.14
2018-12-01T23:24:40.705Z,98751.86
2018-12-01T23:27:11.676Z,98746.96
2018-12-01T23:29:41.822Z,98738.73
2018-12-01T23:32:14.693Z,98736.30
2018-12-01T23:34:45.499Z,98734.16
2018-12-01T23:37:16.596Z,98732.52
2018-12-01T23:39:47.421Z,98736.16
2018-12-01T23:42:17.655Z,98733.80
2018-12-01T23:44:51.448Z,98733.67
2018-12-01T23:47:21.775Z,98734.30
2018-12-01T23:49:52.607Z,98730.45
2018-12-01T23:52:22.848Z,98723.73
2018-12-01T23:54:53.627Z,98721.86
2018-12-01T23:57:24.030Z,98730.26
2018-12-01T23:59:55.783Z,98722.55
